createdAt,value
2023-05-04T00:00:50.543Z,101468.27
2023-05-04T00:04:52.304Z,101468.25
2023-05-04T00:08:50.633Z,101469.29
2023-05-04T00:12:52.264Z,101470.41
2023-05-04T00:16:49.609Z,101471.98
2023-05-04T00:20:51.225Z,101478.73
2023-05-04T00:24:49.621Z,101486.11
2023-05-04T00:28:51.081Z,101489.67
2023-05-04T00:32:49.851Z,101493.04
2023-05-04T00:36:51.253Z,101494.79
2023-05-04T00:40:49.589Z,101502.14
2023-05-04T00:44:51.257Z,101502.80
2023-05-04T00:48:49.633Z,101508.03
2023-05-04T00:52:51.289Z,101504.49
2023-05-04T00:56:50.848Z,101501.31
2023-05-04T01:00:52.151Z,101505.32
2023-05-04T01:04:50.873Z,101513.84
2023-05-04T01:08:51.755Z,101511.05
2023-05-04T01:12:46.810Z,101514.13
2023-05-04T01:16:46.222Z,101515.11
2023-05-04T01:20:44.366Z,101514.95
2023-05-04T01:24:43.525Z,101511.19
2023-05-04T01:28:42.978Z,101510.91
2023-05-04T01:32:38.184Z,101503.49
2023-05-04T01:36:37.676Z,101502.13
2023-05-04T01:40:33.075Z,101502.96
2023-05-04T01:44:32.371Z,101497.11
2023-05-04T01:48:28.508Z,101497.03
2023-05-04T01:52:28.017Z,101497.02
2023-05-04T01:56:29.297Z,101494.73
2023-05-04T02:00:24.927Z,101492.24
2023-05-04T02:04:24.092Z,101493.88
2023-05-04T02:08:20.171Z,101503.30
2023-05-04T02:12:19.950Z,101496.02
2023-05-04T02:16:14.908Z,101492.36
2023-05-04T02:20:13.761Z,101486.98
2023-05-04T02:24:11.184Z,101486.16
2023-05-04T02:28:10.454Z,101487.11
2023-05-04T02:32:06.017Z,101474.94
2023-05-04T02:36:05.657Z,101476.26
2023-05-04T02:40:01.052Z,101481.72
2023-05-04T02:44:01.180Z,101479.59
2023-05-04T02:47:57.271Z,101476.45
2023-05-04T02:51:57.069Z,101469.80
2023-05-04T02:55:52.012Z,101466.13
2023-05-04T02:59:51.043Z,101461.39
2023-05-04T03:03:50.347Z,101461.77
2023-05-04T03:07:49.971Z,101455.94
2023-05-04T03:11:51.646Z,101449.89
2023-05-04T03:15:49.930Z,101450.98
2023-05-04T03:19:51.547Z,101453.01
2023-05-04T03:23:49.847Z,101446.98
2023-05-04T03:27:51.353Z,101453.92
2023-05-04T03:31:49.975Z,101452.88
2023-05-04T03:35:52.088Z,101451.05
2023-05-04T03:39:51.056Z,101454.48
2023-05-04T03:43:52.763Z,101455.45
2023-05-04T03:47:51.350Z,101455.14
2023-05-04T03:51:53.899Z,101457.13
2023-05-04T03:55:56.916Z,101457.52
2023-05-04T03:59:57.836Z,101463.07
2023-05-04T04:04:00.055Z,101463.59
2023-05-04T04:07:58.362Z,101470.70
2023-05-04T04:12:01.489Z,101475.15
2023-05-04T04:16:00.198Z,101477.35
2023-05-04T04:20:01.961Z,101475.85
2023-05-04T04:24:00.077Z,101474.11
2023-05-04T04:28:01.811Z,101475.45
2023-05-04T04:31:59.994Z,101469.89
2023-05-04T04:36:01.676Z,101469.77
2023-05-04T04:40:00.164Z,101470.88
2023-05-04T04:44:01.412Z,101467.60
2023-05-04T04:47:59.217Z,101476.27
2023-05-04T04:52:01.035Z,101474.09
2023-05-04T04:55:59.066Z,101470.52
2023-05-04T05:00:00.708Z,101471.64
2023-05-04T05:03:59.351Z,101471.27
2023-05-04T05:08:00.922Z,101471.63
2023-05-04T05:11:58.626Z,101473.20
2023-05-04T05:15:57.733Z,101472.13
2023-05-04T05:19:55.451Z,101471.98
2023-05-04T05:23:55.736Z,101470.91
2023-05-04T05:27:52.395Z,101455.79
2023-05-04T05:31:49.403Z,101449.35
2023-05-04T05:35:49.638Z,101451.67
2023-05-04T05:39:47.449Z,101452.88
2023-05-04T05:43:47.655Z,101461.38
2023-05-04T05:47:45.240Z,101463.81
2023-05-04T05:51:44.706Z,101455.04
2023-05-04T05:55:42.294Z,101455.09
2023-05-04T05:59:41.874Z,101451.55
2023-05-04T06:03:39.459Z,101451.58
2023-05-04T06:07:39.990Z,101447.30
2023-05-04T06:11:37.326Z,101445.28
2023-05-04T06:15:36.853Z,101441.38
2023-05-04T06:19:34.766Z,101446.84
2023-05-04T06:23:35.044Z,101454.39
2023-05-04T06:27:32.588Z,101460.80
2023-05-04T06:31:32.382Z,101460.23
2023-05-04T06:35:29.666Z,101461.84
2023-05-04T06:39:29.840Z,101469.11
2023-05-04T06:43:29.796Z,101468.70
2023-05-04T06:47:27.303Z,101469.40
2023-05-04T06:51:26.940Z,101472.17
2023-05-04T06:55:24.480Z,101469.77
2023-05-04T06:59:23.994Z,101464.89
2023-05-04T07:03:21.720Z,101463.08
2023-05-04T07:07:20.461Z,101460.00
2023-05-04T07:11:21.376Z,101448.91
2023-05-04T07:15:19.280Z,101444.77
2023-05-04T07:19:20.908Z,101444.45
2023-05-04T07:23:19.492Z,101441.41
2023-05-04T07:27:20.920Z,101440.30
2023-05-04T07:31:14.287Z,101438.63
2023-05-04T07:35:11.445Z,101441.86
2023-05-04T07:39:11.213Z,101439.63
2023-05-04T07:43:10.799Z,101443.90
2023-05-04T07:47:06.734Z,101441.70
2023-05-04T07:51:06.330Z,101439.63
2023-05-04T07:55:01.560Z,101438.08
2023-05-04T07:58:58.570Z,101440.16
2023-05-04T08:02:51.722Z,101440.75
2023-05-04T08:06:54.737Z,101439.56
2023-05-04T08:10:50.836Z,101441.71
2023-05-04T08:14:50.373Z,101437.34
2023-05-04T08:18:45.944Z,101434.39
2023-05-04T08:22:45.107Z,101431.59
2023-05-04T08:26:41.393Z,101427.56
2023-05-04T08:30:39.672Z,101425.53
2023-05-04T08:34:33.163Z,101422.23
2023-05-04T08:38:09.174Z,101413.69
2023-05-04T08:42:12.296Z,101418.02
2023-05-04T08:46:07.752Z,101411.10
2023-05-04T08:50:07.304Z,101409.12
2023-05-04T08:54:02.776Z,101408.71
2023-05-04T08:58:02.374Z,101405.59
2023-05-04T09:01:55.664Z,101398.55
2023-05-04T09:05:52.734Z,101401.30
2023-05-04T09:09:52.249Z,101392.66
2023-05-04T09:13:51.503Z,101392.60
2023-05-04T09:17:57.094Z,101391.37
2023-05-04T09:21:57.468Z,101388.94
2023-05-04T09:25:52.922Z,101388.91
2023-05-04T09:29:50.048Z,101392.36
2023-05-04T09:33:50.457Z,101385.50
2023-05-04T09:37:51.626Z,101381.91
2023-05-04T09:41:48.438Z,101379.91
2023-05-04T09:45:48.738Z,101379.65
2023-05-04T09:49:45.375Z,101385.33
2023-05-04T09:53:44.815Z,101385.89
2023-05-04T09:57:42.145Z,101380.91
2023-05-04T10:01:43.422Z,101382.39
2023-05-04T10:05:42.623Z,101380.80
2023-05-04T10:09:42.635Z,101378.70
2023-05-04T10:13:39.604Z,101377.46
2023-05-04T10:17:39.679Z,101377.36
2023-05-04T10:21:36.961Z,101376.54
2023-05-04T10:25:36.713Z,101374.44
2023-05-04T10:29:33.401Z,101367.02
2023-05-04T10:33:33.086Z,101365.65
2023-05-04T10:37:30.956Z,101354.88
2023-05-04T10:41:30.467Z,101357.14
2023-05-04T10:45:27.972Z,101348.61
2023-05-04T10:49:27.726Z,101340.80
2023-05-04T10:53:27.994Z,101342.02
2023-05-04T10:57:27.764Z,101341.55
2023-05-04T11:01:25.134Z,101342.89
2023-05-04T11:05:34.838Z,101331.99
2023-05-04T11:09:33.870Z,101324.60
2023-05-04T11:13:35.745Z,101324.92
2023-05-04T11:17:33.734Z,101323.48
2023-05-04T11:21:35.180Z,101325.34
2023-05-04T11:25:33.732Z,101325.95
2023-05-04T11:29:35.351Z,101316.42
2023-05-04T11:33:34.948Z,101312.40
2023-05-04T11:37:36.218Z,101308.30
2023-05-04T11:41:34.807Z,101304.83
2023-05-04T11:45:36.141Z,101291.55
2023-05-04T11:49:33.866Z,101284.20
2023-05-04T11:53:35.364Z,101272.27
2023-05-04T11:57:33.844Z,101272.37
2023-05-04T12:01:35.913Z,101266.77
2023-05-04T12:05:33.843Z,101259.08
2023-05-04T12:09:35.201Z,101251.34
2023-05-04T12:13:33.886Z,101247.43
2023-05-04T12:17:34.805Z,101243.56
2023-05-04T12:21:32.833Z,101239.77
2023-05-04T12:25:34.534Z,101231.06
2023-05-04T12:29:35.896Z,101235.13
2023-05-04T12:33:37.486Z,101229.40
2023-05-04T12:37:35.965Z,101223.02
2023-05-04T12:41:37.346Z,101216.09
2023-05-04T12:45:36.164Z,101212.30
2023-05-04T12:49:37.297Z,101206.73
2023-05-04T12:53:35.928Z,101203.29
2023-05-04T12:57:37.496Z,101193.35
2023-05-04T13:01:34.973Z,101189.20
2023-05-04T13:05:36.499Z,101181.11
2023-05-04T13:09:34.178Z,101181.16
2023-05-04T13:13:33.432Z,101179.45
2023-05-04T13:17:31.354Z,101176.33
2023-05-04T13:21:31.478Z,101174.58
2023-05-04T13:25:29.447Z,101167.34
2023-05-04T13:29:29.586Z,101165.41
2023-05-04T13:33:29.844Z,101157.27
2023-05-04T13:37:30.536Z,101151.66
2023-05-04T13:41:28.238Z,101150.44
2023-05-04T13:45:25.831Z,101149.44
2023-05-04T13:49:14.905Z,101154.85
2023-05-04T13:53:06.165Z,101149.45
2023-05-04T13:57:01.976Z,101143.41
2023-05-04T14:01:01.704Z,101142.42
2023-05-04T14:04:59.325Z,101137.31
2023-05-04T14:08:59.757Z,101135.30
2023-05-04T14:12:57.156Z,101139.58
2023-05-04T14:16:56.543Z,101139.74
2023-05-04T14:20:54.438Z,101137.45
2023-05-04T14:24:45.514Z,101132.53
2023-05-04T14:28:40.577Z,101125.10
2023-05-04T14:32:40.658Z,101120.01
2023-05-04T14:38:17.650Z,101112.77
2023-05-04T14:42:16.947Z,101116.65
2023-05-04T14:46:14.892Z,101114.20
2023-05-04T14:50:15.127Z,101114.27
2023-05-04T14:54:12.719Z,101114.65
2023-05-04T14:58:12.846Z,101117.91
2023-05-04T15:02:09.886Z,101116.40
2023-05-04T15:06:08.822Z,101118.98
2023-05-04T15:10:10.282Z,101116.74
2023-05-04T15:14:08.737Z,101113.28
2023-05-04T15:18:10.311Z,101112.77
2023-05-04T15:22:08.748Z,101110.20
2023-05-04T15:26:10.158Z,101113.55
2023-05-04T15:30:08.922Z,101115.72
2023-05-04T15:34:10.885Z,101114.23
2023-05-04T15:38:08.756Z,101113.94
2023-05-04T15:42:10.123Z,101118.29
2023-05-04T15:46:08.812Z,101118.04
2023-05-04T15:50:10.545Z,101118.07
2023-05-04T15:54:08.627Z,101115.36
2023-05-04T15:58:10.265Z,101111.95
2023-05-04T16:02:08.906Z,101111.17
2023-05-04T16:06:10.206Z,101109.02
2023-05-04T16:10:09.096Z,101106.35
2023-05-04T16:14:10.640Z,101106.91
2023-05-04T16:18:08.861Z,101112.17
2023-05-04T16:22:10.391Z,101111.83
2023-05-04T16:26:08.771Z,101117.14
2023-05-04T16:30:10.579Z,101117.41
2023-05-04T16:34:08.805Z,101115.70
2023-05-04T16:38:10.276Z,101118.13
2023-05-04T16:42:11.974Z,101120.98
2023-05-04T16:46:09.854Z,101121.98
2023-05-04T16:50:11.428Z,101122.63
2023-05-04T16:54:09.804Z,101122.29
2023-05-04T16:58:11.306Z,101121.88
2023-05-04T17:02:09.895Z,101124.34
2023-05-04T17:06:12.005Z,101131.55
2023-05-04T17:10:07.244Z,101133.80
2023-05-04T17:14:06.609Z,101131.98
2023-05-04T17:18:02.229Z,101140.41
2023-05-04T17:22:01.596Z,101141.10
2023-05-04T17:25:56.722Z,101146.55
2023-05-04T17:29:55.922Z,101152.30
2023-05-04T17:33:51.024Z,101157.11
2023-05-04T17:37:50.954Z,101150.30
2023-05-04T17:41:46.077Z,101142.51
2023-05-04T17:45:45.202Z,101139.68
2023-05-04T17:49:41.078Z,101145.35
2023-05-04T17:53:40.690Z,101148.26
2023-05-04T17:57:36.026Z,101158.01
2023-05-04T18:01:35.228Z,101162.55
2023-05-04T18:05:31.166Z,101163.33
2023-05-04T18:09:30.654Z,101158.88
2023-05-04T18:13:26.101Z,101150.73
2023-05-04T18:17:26.404Z,101144.33
2023-05-04T18:21:22.054Z,101131.59
2023-05-04T18:25:21.122Z,101118.06
2023-05-04T18:29:19.495Z,101122.83
2023-05-04T18:33:21.001Z,101133.66
2023-05-04T18:37:16.423Z,101148.70
2023-05-04T18:41:15.747Z,101159.16
2023-05-04T18:45:11.389Z,101164.23
2023-05-04T18:49:11.101Z,101169.95
2023-05-04T18:53:06.479Z,101169.75
2023-05-04T18:57:05.599Z,101168.05
2023-05-04T19:01:01.202Z,101168.32
2023-05-04T19:05:01.033Z,101164.45
2023-05-04T19:09:02.754Z,101163.31
2023-05-04T19:13:00.190Z,101158.86
2023-05-04T19:17:01.490Z,101149.49
2023-05-04T19:21:00.167Z,101149.44
2023-05-04T19:25:00.969Z,101153.84
2023-05-04T19:28:59.037Z,101155.09
2023-05-04T19:33:00.667Z,101156.90
2023-05-04T19:36:59.066Z,101160.66
2023-05-04T19:41:00.680Z,101153.73
2023-05-04T19:44:59.219Z,101154.39
2023-05-04T19:49:00.010Z,101155.32
2023-05-04T19:52:58.171Z,101148.63
2023-05-04T19:56:59.555Z,101148.84
2023-05-04T20:00:58.146Z,101144.70
2023-05-04T20:04:59.746Z,101140.89
2023-05-04T20:08:58.261Z,101135.37
2023-05-04T20:12:59.601Z,101143.53
2023-05-04T20:16:58.435Z,101148.39
2023-05-04T20:21:00.116Z,101148.60
2023-05-04T20:24:58.077Z,101147.20
2023-05-04T20:28:59.776Z,101144.54
2023-05-04T20:32:58.285Z,101142.91
2023-05-04T20:36:59.603Z,101140.80
2023-05-04T20:40:58.367Z,101149.50
2023-05-04T20:45:00.129Z,101151.04
2023-05-04T20:48:58.140Z,101152.55
2023-05-04T20:52:59.668Z,101144.97
2023-05-04T20:56:58.211Z,101140.42
2023-05-04T21:00:59.839Z,101139.16
2023-05-04T21:04:58.362Z,101139.75
2023-05-04T21:08:59.703Z,101143.20
2023-05-04T21:12:55.581Z,101148.00
2023-05-04T21:16:55.060Z,101151.67
2023-05-04T21:20:50.228Z,101148.24
2023-05-04T21:24:49.407Z,101152.15
2023-05-04T21:28:44.599Z,101149.27
2023-05-04T21:32:44.416Z,101151.08
2023-05-04T21:36:39.813Z,101148.58
2023-05-04T21:40:38.891Z,101149.08
2023-05-04T21:44:34.400Z,101159.23
2023-05-04T21:48:35.720Z,101156.30
2023-05-04T21:52:31.718Z,101160.48
2023-05-04T21:56:31.007Z,101159.98
2023-05-04T22:00:26.553Z,101151.61
2023-05-04T22:04:25.685Z,101153.73
2023-05-04T22:08:21.984Z,101148.45
2023-05-04T22:12:21.316Z,101144.03
2023-05-04T22:16:16.477Z,101142.02
2023-05-04T22:20:16.826Z,101143.73
2023-05-04T22:24:12.681Z,101138.73
2023-05-04T22:28:12.284Z,101143.35
2023-05-04T22:32:08.042Z,101145.11
2023-05-04T22:36:07.199Z,101141.02
2023-05-04T22:40:02.532Z,101143.94
2023-05-04T22:44:01.479Z,101148.44
2023-05-04T22:47:56.692Z,101148.54
2023-05-04T22:51:56.480Z,101151.40
2023-05-04T22:55:51.968Z,101146.24
2023-05-04T22:59:51.181Z,101146.90
2023-05-04T23:03:46.767Z,101149.77
2023-05-04T23:07:46.341Z,101148.52
2023-05-04T23:11:47.728Z,101151.65
2023-05-04T23:15:46.555Z,101152.46
2023-05-04T23:19:48.207Z,101145.64
2023-05-04T23:23:46.489Z,101147.81
2023-05-04T23:27:47.981Z,101146.08
2023-05-04T23:31:46.608Z,101148.71
2023-05-04T23:35:48.570Z,101138.30
2023-05-04T23:39:46.370Z,101133.45
2023-05-04T23:43:48.098Z,101129.38
2023-05-04T23:47:46.469Z,101127.89
2023-05-04T23:51:48.104Z,101136.21
2023-05-04T23:55:46.467Z,101129.69
2023-05-04T23:59:48.119Z,101125.13
